createdAt,value
2023-04-22T00:00:58.220Z,3.20
2023-04-22T00:03:28.777Z,3.10
2023-04-22T00:05:57.786Z,2.53
2023-04-22T00:08:26.494Z,3.03
2023-04-22T00:10:54.907Z,5.75
2023-04-22T00:13:23.381Z,3.30
2023-04-22T00:15:52.150Z,4.43
2023-04-22T00:18:20.784Z,4.47
2023-04-22T00:20:49.280Z,3.80
2023-04-22T00:23:18.050Z,6.40
2023-04-22T00:25:46.504Z,3.73
2023-04-22T00:28:15.039Z,3.40
2023-04-22T00:30:43.437Z,4.33
2023-04-22T00:33:11.911Z,4.93
2023-04-22T00:35:40.333Z,3.77
2023-04-22T00:38:08.768Z,2.80
2023-04-22T00:40:37.226Z,4.80
2023-04-22T00:43:05.983Z,2.83
2023-04-22T00:45:35.100Z,4.10
2023-04-22T00:48:04.398Z,6.20
2023-04-22T00:50:32.854Z,3.33
2023-04-22T00:53:01.447Z,3.60
2023-04-22T00:55:29.889Z,5.17
2023-04-22T00:58:01.606Z,4.47
2023-04-22T01:00:30.879Z,4.50
2023-04-22T01:02:59.695Z,5.70
2023-04-22T01:05:30.520Z,3.40
2023-04-22T01:07:58.990Z,4.20
2023-04-22T01:10:27.453Z,4.87
2023-04-22T01:12:55.857Z,6.63
2023-04-22T01:15:24.370Z,4.33
2023-04-22T01:17:54.220Z,4.37
2023-04-22T01:20:24.354Z,3.37
2023-04-22T01:22:58.252Z,3.93
2023-04-22T01:25:27.664Z,4.90
2023-04-22T01:27:56.366Z,2.53
2023-04-22T01:30:24.808Z,3.80
2023-04-22T01:32:53.539Z,4.03
2023-04-22T01:35:22.018Z,2.93
2023-04-22T01:37:50.511Z,6.40
2023-04-22T01:40:20.667Z,4.43
2023-04-22T01:42:49.371Z,2.47
2023-04-22T01:45:18.381Z,4.87
2023-04-22T01:47:46.768Z,3.63
2023-04-22T01:50:15.277Z,9.60
2023-04-22T01:52:43.702Z,3.13
2023-04-22T01:55:12.136Z,5.40
2023-04-22T01:57:40.673Z,2.97
2023-04-22T02:00:10.276Z,3.80
2023-04-22T02:02:38.788Z,4.27
2023-04-22T02:05:09.025Z,3.90
2023-04-22T02:07:37.731Z,4.80
2023-04-22T02:10:07.418Z,5.07
2023-04-22T02:12:35.831Z,3.60
2023-04-22T02:15:04.891Z,3.23
2023-04-22T02:17:34.982Z,3.70
2023-04-22T02:20:05.635Z,3.03
2023-04-22T02:22:34.426Z,6.30
2023-04-22T02:25:03.093Z,6.27
2023-04-22T02:27:31.587Z,4.00
2023-04-22T02:30:00.017Z,2.83
2023-04-22T02:32:28.446Z,3.90
2023-04-22T02:34:57.019Z,3.67
2023-04-22T02:37:25.517Z,3.60
2023-04-22T02:39:53.896Z,5.60
2023-04-22T02:42:22.331Z,4.70
2023-04-22T02:44:50.703Z,3.90
2023-04-22T02:47:19.222Z,8.17
2023-04-22T02:49:47.641Z,8.33
2023-04-22T02:52:16.026Z,7.07
2023-04-22T02:54:44.414Z,7.80
2023-04-22T02:57:12.800Z,7.37
2023-04-22T02:59:41.733Z,13.70
2023-04-22T03:02:11.607Z,9.50
2023-04-22T03:04:40.083Z,9.87
2023-04-22T03:07:08.480Z,7.23
2023-04-22T03:09:37.079Z,7.70
2023-04-22T03:12:05.962Z,5.67
2023-04-22T03:14:34.448Z,6.17
2023-04-22T03:17:02.956Z,7.77
2023-04-22T03:19:31.507Z,8.23
2023-04-22T03:22:00.187Z,10.43
2023-04-22T03:24:28.752Z,6.40
2023-04-22T03:26:57.195Z,5.60
2023-04-22T03:29:25.675Z,5.73
2023-04-22T03:31:54.121Z,6.47
2023-04-22T03:34:22.943Z,7.50
2023-04-22T03:36:51.374Z,4.53
2023-04-22T03:39:19.809Z,6.30
2023-04-22T03:41:48.382Z,4.93
2023-04-22T03:44:16.790Z,6.43
2023-04-22T03:46:45.201Z,5.97
2023-04-22T03:49:14.482Z,8.90
2023-04-22T03:51:42.901Z,7.07
2023-04-22T03:54:11.292Z,6.90
2023-04-22T03:56:39.788Z,5.50
2023-04-22T03:59:08.197Z,6.73
2023-04-22T04:01:37.064Z,7.43
2023-04-22T04:04:05.784Z,6.67
2023-04-22T04:06:34.429Z,6.27
2023-04-22T04:09:02.820Z,6.70
2023-04-22T04:11:31.794Z,6.17
2023-04-22T04:14:00.349Z,13.90
2023-04-22T04:16:28.889Z,35.57
2023-04-22T04:18:57.402Z,37.10
2023-04-22T04:21:25.866Z,50.37
2023-04-22T04:23:54.942Z,53.67
2023-04-22T04:26:24.753Z,44.73
2023-04-22T04:28:53.176Z,35.40
2023-04-22T04:31:22.235Z,33.07
2023-04-22T04:33:51.171Z,38.87
2023-04-22T04:36:19.799Z,38.80
2023-04-22T04:38:48.671Z,29.80
2023-04-22T04:41:17.596Z,34.90
2023-04-22T04:43:47.173Z,40.73
2023-04-22T04:46:17.520Z,24.60
2023-04-22T04:48:47.429Z,12.80
2023-04-22T04:51:17.541Z,12.23
2023-04-22T04:53:47.311Z,13.30
2023-04-22T04:56:15.766Z,10.13
2023-04-22T04:58:44.270Z,8.90
2023-04-22T05:01:12.656Z,7.90
2023-04-22T05:03:41.344Z,5.80
2023-04-22T05:06:11.381Z,8.43
2023-04-22T05:08:39.835Z,10.17
2023-04-22T05:11:08.250Z,8.20
2023-04-22T05:13:36.695Z,8.33
2023-04-22T05:16:05.203Z,9.50
2023-04-22T05:18:33.705Z,6.67
2023-04-22T05:21:04.977Z,7.07
2023-04-22T05:23:33.843Z,8.17
2023-04-22T05:26:02.802Z,5.50
2023-04-22T05:28:31.222Z,8.43
2023-04-22T05:30:59.654Z,6.40
2023-04-22T05:33:28.037Z,8.67
2023-04-22T05:35:56.690Z,6.67
2023-04-22T05:38:25.349Z,9.00
2023-04-22T05:40:53.779Z,9.00
2023-04-22T05:43:22.198Z,7.83
2023-04-22T05:45:50.642Z,9.70
2023-04-22T05:48:19.173Z,8.63
2023-04-22T05:50:47.601Z,7.00
2023-04-22T05:53:16.226Z,8.70
2023-04-22T05:55:44.954Z,9.83
2023-04-22T05:58:13.362Z,7.13
2023-04-22T06:00:41.926Z,10.67
2023-04-22T06:03:10.585Z,10.67
2023-04-22T06:05:39.199Z,8.20
2023-04-22T06:08:07.711Z,14.67
2023-04-22T06:10:36.086Z,9.40
2023-04-22T06:13:04.804Z,10.07
2023-04-22T06:15:35.046Z,10.40
2023-04-22T06:18:03.682Z,14.47
2023-04-22T06:20:33.609Z,13.20
2023-04-22T06:23:02.953Z,10.70
2023-04-22T06:25:31.336Z,11.10
2023-04-22T06:28:02.661Z,11.43
2023-04-22T06:30:31.347Z,11.70
2023-04-22T06:32:59.817Z,12.30
2023-04-22T06:35:28.776Z,13.13
2023-04-22T06:37:57.233Z,13.93
2023-04-22T06:40:25.764Z,17.37
2023-04-22T06:42:54.162Z,14.47
2023-04-22T06:45:22.635Z,17.83
2023-04-22T06:47:52.998Z,18.20
2023-04-22T06:50:21.978Z,15.27
2023-04-22T06:52:50.482Z,18.20
2023-04-22T06:55:18.967Z,13.13
2023-04-22T06:57:47.407Z,12.17
2023-04-22T07:00:16.330Z,14.23
2023-04-22T07:02:44.776Z,17.43
2023-04-22T07:05:13.556Z,12.70
2023-04-22T07:07:41.981Z,27.67
2023-04-22T07:10:11.649Z,13.30
2023-04-22T07:12:40.144Z,14.20
2023-04-22T07:15:09.391Z,11.20
2023-04-22T07:17:37.862Z,11.37
2023-04-22T07:20:07.248Z,10.50
2023-04-22T07:22:35.620Z,14.40
2023-04-22T07:25:05.083Z,16.47
2023-04-22T07:27:35.171Z,12.13
2023-04-22T07:30:04.270Z,10.70
2023-04-22T07:32:32.709Z,9.97
2023-04-22T07:35:01.159Z,15.63
2023-04-22T07:37:29.525Z,12.40
2023-04-22T07:39:57.901Z,11.90
2023-04-22T07:42:26.780Z,8.20
2023-04-22T07:44:55.187Z,10.07
2023-04-22T07:47:23.612Z,10.80
2023-04-22T07:49:52.064Z,8.17
2023-04-22T07:52:21.775Z,9.13
2023-04-22T07:54:50.804Z,14.03
2023-04-22T07:57:22.626Z,11.23
2023-04-22T07:59:52.891Z,12.40
2023-04-22T08:02:21.439Z,10.63
2023-04-22T08:04:49.974Z,13.33
2023-04-22T08:07:32.512Z,9.50
2023-04-22T08:10:02.179Z,10.10
2023-04-22T08:12:30.601Z,8.43
2023-04-22T08:14:59.375Z,9.47
2023-04-22T08:17:28.329Z,10.93
2023-04-22T08:19:56.801Z,8.97
2023-04-22T08:22:26.258Z,9.60
2023-04-22T08:24:54.800Z,13.20
2023-04-22T08:27:23.703Z,8.93
2023-04-22T08:29:52.149Z,10.80
2023-04-22T08:32:23.302Z,14.47
2023-04-22T08:34:52.136Z,8.70
2023-04-22T08:37:22.610Z,13.57
2023-04-22T08:39:51.045Z,11.33
2023-04-22T08:42:23.672Z,9.30
2023-04-22T08:44:53.358Z,9.57
2023-04-22T08:47:22.635Z,10.67
2023-04-22T08:49:54.413Z,7.33
2023-04-22T08:52:22.945Z,12.20
2023-04-22T08:54:52.095Z,10.10
2023-04-22T08:57:20.898Z,11.43
2023-04-22T08:59:50.999Z,13.00
2023-04-22T09:02:24.855Z,15.73
2023-04-22T09:04:54.964Z,12.87
2023-04-22T09:07:31.120Z,12.27
2023-04-22T09:10:00.429Z,15.67
2023-04-22T09:12:29.283Z,17.30
2023-04-22T09:14:58.065Z,15.63
2023-04-22T09:17:39.263Z,14.00
2023-04-22T09:20:09.761Z,9.97
2023-04-22T09:22:44.384Z,12.93
2023-04-22T09:25:23.457Z,13.33
2023-04-22T09:27:53.721Z,18.30
2023-04-22T09:30:33.651Z,11.73
2023-04-22T09:33:11.138Z,10.77
2023-04-22T09:35:41.919Z,12.90
2023-04-22T09:38:12.314Z,9.57
2023-04-22T09:40:44.792Z,12.80
2023-04-22T09:43:13.293Z,11.20
2023-04-22T09:45:43.966Z,11.27
2023-04-22T09:48:14.812Z,8.83
2023-04-22T09:50:48.217Z,10.13
2023-04-22T09:53:19.487Z,9.10
2023-04-22T09:55:55.795Z,13.23
2023-04-22T09:58:28.536Z,13.43
2023-04-22T10:00:59.901Z,9.80
2023-04-22T10:03:28.354Z,10.50
2023-04-22T10:05:56.778Z,10.80
2023-04-22T10:08:25.263Z,10.50
2023-04-22T10:10:54.485Z,13.07
2023-04-22T10:13:23.262Z,10.73
2023-04-22T10:15:54.742Z,9.30
2023-04-22T10:18:28.206Z,8.27
2023-04-22T10:20:58.959Z,15.93
2023-04-22T10:23:27.643Z,10.37
2023-04-22T10:25:57.695Z,9.67
2023-04-22T10:28:31.008Z,11.00
2023-04-22T10:30:59.496Z,12.60
2023-04-22T10:33:29.461Z,11.40
2023-04-22T10:36:16.125Z,18.67
2023-04-22T10:38:56.446Z,12.10
2023-04-22T10:41:27.025Z,10.90
2023-04-22T10:44:01.138Z,16.90
2023-04-22T10:46:40.552Z,15.40
2023-04-22T10:49:21.721Z,10.30
2023-04-22T10:51:54.918Z,11.70
2023-04-22T10:54:31.896Z,11.97
2023-04-22T10:57:09.928Z,11.70
2023-04-22T10:59:54.398Z,14.57
2023-04-22T11:02:25.731Z,17.87
2023-04-22T11:05:27.962Z,14.77
2023-04-22T11:08:02.612Z,10.00
2023-04-22T11:10:43.039Z,15.30
2023-04-22T11:13:15.660Z,13.13
2023-04-22T11:15:49.583Z,11.57
2023-04-22T11:18:30.723Z,15.53
2023-04-22T11:21:07.206Z,15.13
2023-04-22T11:23:36.982Z,13.77
2023-04-22T11:26:08.394Z,14.73
2023-04-22T11:28:37.294Z,8.83
2023-04-22T11:31:13.148Z,13.70
2023-04-22T11:33:42.078Z,17.20
2023-04-22T11:36:14.042Z,12.50
2023-04-22T11:38:42.640Z,15.23
2023-04-22T11:41:11.059Z,11.33
2023-04-22T11:43:48.641Z,10.63
2023-04-22T11:46:17.027Z,17.70
2023-04-22T11:48:45.528Z,10.43
2023-04-22T11:51:14.121Z,11.07
2023-04-22T11:53:51.700Z,15.73
2023-04-22T11:56:21.628Z,21.57
2023-04-22T11:58:50.027Z,10.37
2023-04-22T12:01:19.513Z,11.87
2023-04-22T12:03:48.131Z,13.17
2023-04-22T12:06:17.977Z,19.60
2023-04-22T12:08:48.284Z,19.00
2023-04-22T12:11:16.724Z,12.37
2023-04-22T12:13:47.216Z,13.40
2023-04-22T12:16:19.128Z,12.43
2023-04-22T12:18:55.854Z,12.40
2023-04-22T12:21:26.777Z,14.27
2023-04-22T12:24:12.067Z,10.47
2023-04-22T12:26:40.466Z,16.70
2023-04-22T12:29:08.869Z,11.27
2023-04-22T12:31:38.998Z,13.13
2023-04-22T12:34:07.851Z,11.80
2023-04-22T12:36:36.233Z,14.80
2023-04-22T12:39:05.618Z,15.70
2023-04-22T12:41:34.078Z,17.97
2023-04-22T12:44:02.456Z,19.03
2023-04-22T12:46:30.950Z,13.60
2023-04-22T12:48:59.407Z,15.83
2023-04-22T12:51:28.233Z,17.00
2023-04-22T12:53:56.654Z,14.23
2023-04-22T12:56:25.057Z,14.90
2023-04-22T12:58:53.446Z,14.43
2023-04-22T13:01:21.905Z,21.53
2023-04-22T13:03:54.011Z,13.20
2023-04-22T13:06:22.661Z,15.67
2023-04-22T13:08:51.164Z,20.70
2023-04-22T13:11:19.548Z,13.43
2023-04-22T13:13:48.044Z,9.47
2023-04-22T13:16:16.701Z,10.63
2023-04-22T13:18:45.184Z,14.37
2023-04-22T13:21:15.547Z,9.70
2023-04-22T13:23:44.333Z,8.23
2023-04-22T13:26:13.125Z,8.30
2023-04-22T13:28:44.104Z,9.40
2023-04-22T13:31:12.528Z,9.23
2023-04-22T13:33:41.304Z,9.87
2023-04-22T13:36:09.895Z,11.20
2023-04-22T13:38:38.338Z,14.80
2023-04-22T13:41:06.771Z,11.00
2023-04-22T13:43:35.215Z,11.43
2023-04-22T13:46:03.637Z,11.90
2023-04-22T13:48:32.180Z,8.83
2023-04-22T13:51:00.591Z,9.83
2023-04-22T13:53:28.970Z,8.53
2023-04-22T13:55:57.374Z,8.53
2023-04-22T13:58:25.772Z,9.87
2023-04-22T14:00:54.584Z,7.47
2023-04-22T14:03:23.486Z,11.30
2023-04-22T14:05:53.429Z,7.53
2023-04-22T14:08:22.088Z,8.00
2023-04-22T14:10:50.727Z,8.20
2023-04-22T14:13:19.605Z,10.13
2023-04-22T14:15:48.493Z,8.43
2023-04-22T14:18:17.138Z,8.33
2023-04-22T14:20:46.068Z,7.43
2023-04-22T14:23:15.144Z,7.00
2023-04-22T14:25:48.843Z,5.87
2023-04-22T14:28:17.456Z,6.60
2023-04-22T14:30:45.950Z,6.90
2023-04-22T14:33:14.402Z,6.20
2023-04-22T14:35:43.003Z,8.30
2023-04-22T14:38:12.857Z,6.73
2023-04-22T14:40:41.641Z,6.53
2023-04-22T14:43:10.239Z,9.00
2023-04-22T14:45:38.688Z,6.70
2023-04-22T14:48:07.702Z,8.90
2023-04-22T14:50:36.461Z,7.30
2023-04-22T14:53:05.131Z,13.17
2023-04-22T14:55:33.598Z,12.80
2023-04-22T14:58:02.685Z,14.10
2023-04-22T15:00:31.261Z,13.40
2023-04-22T15:02:59.953Z,18.13
2023-04-22T15:05:28.549Z,17.30
2023-04-22T15:07:58.587Z,26.33
2023-04-22T15:10:28.803Z,17.20
2023-04-22T15:12:57.254Z,17.10
2023-04-22T15:15:26.119Z,24.33
2023-04-22T15:17:54.724Z,14.10
2023-04-22T15:20:23.194Z,14.33
2023-04-22T15:22:52.910Z,12.73
2023-04-22T15:25:21.544Z,14.00
2023-04-22T15:27:50.021Z,15.70
2023-04-22T15:30:18.437Z,14.20
2023-04-22T15:32:47.117Z,10.43
2023-04-22T15:35:15.776Z,9.63
2023-04-22T15:37:45.894Z,8.77
2023-04-22T15:40:14.349Z,11.37
2023-04-22T15:42:42.919Z,9.60
2023-04-22T15:45:11.840Z,7.83
2023-04-22T15:47:41.918Z,9.90
2023-04-22T15:50:11.209Z,8.60
2023-04-22T15:52:40.066Z,8.30
2023-04-22T15:55:09.171Z,7.90
2023-04-22T15:57:37.809Z,8.77
2023-04-22T16:00:12.311Z,8.40
2023-04-22T16:02:43.040Z,12.40
2023-04-22T16:05:28.710Z,8.97
2023-04-22T16:08:00.401Z,8.20
2023-04-22T16:10:29.101Z,7.40
2023-04-22T16:13:02.657Z,10.93
2023-04-22T16:15:31.357Z,7.50
2023-04-22T16:18:00.048Z,8.63
2023-04-22T16:20:28.618Z,12.10
2023-04-22T16:22:57.062Z,8.67
2023-04-22T16:25:26.139Z,6.40
2023-04-22T16:27:54.878Z,7.80
2023-04-22T16:30:24.166Z,8.10
2023-04-22T16:32:52.759Z,12.07
2023-04-22T16:35:21.362Z,6.63
2023-04-22T16:37:49.988Z,5.97
2023-04-22T16:40:18.937Z,8.27
2023-04-22T16:42:47.556Z,5.80
2023-04-22T16:45:16.260Z,7.07
2023-04-22T16:47:44.887Z,8.73
2023-04-22T16:50:14.312Z,6.80
2023-04-22T16:52:42.803Z,6.60
2023-04-22T16:55:11.371Z,8.93
2023-04-22T16:57:39.799Z,6.30
2023-04-22T17:00:09.206Z,5.10
2023-04-22T17:02:37.745Z,8.40
2023-04-22T17:05:06.709Z,8.10
2023-04-22T17:07:35.137Z,4.20
2023-04-22T17:10:03.552Z,4.40
2023-04-22T17:12:32.065Z,3.60
2023-04-22T17:15:00.508Z,7.33
2023-04-22T17:17:29.075Z,4.50
2023-04-22T17:19:57.542Z,4.20
2023-04-22T17:22:26.007Z,5.17
2023-04-22T17:24:54.675Z,4.50
2023-04-22T17:27:23.251Z,3.73
2023-04-22T17:29:51.623Z,4.30
2023-04-22T17:32:20.082Z,4.80
2023-04-22T17:34:48.802Z,4.17
2023-04-22T17:37:17.289Z,4.20
2023-04-22T17:39:45.682Z,3.70
2023-04-22T17:42:14.554Z,5.00
2023-04-22T17:44:43.245Z,4.13
2023-04-22T17:47:11.707Z,4.23
2023-04-22T17:49:40.482Z,4.20
2023-04-22T17:52:09.099Z,4.57
2023-04-22T17:54:37.469Z,5.10
2023-04-22T17:57:05.933Z,6.90
2023-04-22T17:59:34.378Z,7.10
2023-04-22T18:02:03.183Z,6.33
2023-04-22T18:04:32.736Z,6.73
2023-04-22T18:07:01.227Z,5.77
2023-04-22T18:09:29.681Z,5.27
2023-04-22T18:12:01.001Z,6.97
2023-04-22T18:14:29.632Z,5.32
2023-04-22T18:16:58.210Z,4.40
2023-04-22T18:19:26.679Z,6.83
2023-04-22T18:22:00.073Z,5.20
2023-04-22T18:24:29.874Z,6.33
2023-04-22T18:26:58.855Z,3.63
2023-04-22T18:29:27.294Z,3.97
2023-04-22T18:31:55.880Z,3.83
2023-04-22T18:34:24.455Z,3.90
2023-04-22T18:36:52.935Z,3.67
2023-04-22T18:39:22.395Z,6.10
2023-04-22T18:41:50.869Z,5.60
2023-04-22T18:44:19.864Z,5.67
2023-04-22T18:46:48.358Z,5.63
2023-04-22T18:49:16.727Z,5.30
2023-04-22T18:51:47.526Z,5.90
2023-04-22T18:54:16.558Z,5.13
2023-04-22T18:56:46.106Z,4.27
2023-04-22T18:59:14.633Z,4.00
2023-04-22T19:01:43.182Z,3.93
2023-04-22T19:04:12.265Z,4.47
2023-04-22T19:06:42.245Z,3.60
2023-04-22T19:09:10.714Z,7.27
2023-04-22T19:11:39.617Z,2.97
2023-04-22T19:14:08.439Z,5.93
2023-04-22T19:16:36.865Z,3.13
2023-04-22T19:19:05.285Z,4.80
2023-04-22T19:21:34.175Z,3.53
2023-04-22T19:24:03.107Z,3.90
2023-04-22T19:26:32.021Z,3.93
2023-04-22T19:29:00.530Z,3.57
2023-04-22T19:31:32.301Z,3.30
2023-04-22T19:34:03.289Z,2.60
2023-04-22T19:36:32.923Z,3.37
2023-04-22T19:39:01.394Z,5.40
2023-04-22T19:41:29.866Z,3.67
2023-04-22T19:43:59.788Z,4.50
2023-04-22T19:46:28.327Z,4.50
2023-04-22T19:48:57.457Z,3.70
2023-04-22T19:51:26.917Z,6.27
2023-04-22T19:53:56.272Z,7.13
2023-04-22T19:56:25.256Z,3.50
2023-04-22T19:58:53.778Z,4.47
2023-04-22T20:01:23.367Z,4.60
2023-04-22T20:03:53.227Z,4.47
2023-04-22T20:06:23.573Z,3.40
2023-04-22T20:08:59.659Z,3.80
2023-04-22T20:11:29.904Z,3.40
2023-04-22T20:13:58.597Z,4.10
2023-04-22T20:16:27.771Z,4.00
2023-04-22T20:18:56.388Z,4.00
2023-04-22T20:21:24.901Z,5.13
2023-04-22T20:23:56.442Z,4.93
2023-04-22T20:26:25.206Z,4.23
2023-04-22T20:28:54.796Z,5.13
2023-04-22T20:31:23.637Z,4.97
2023-04-22T20:33:52.701Z,7.40
2023-04-22T20:36:23.077Z,5.20
2023-04-22T20:38:55.606Z,7.47
2023-04-22T20:41:25.402Z,5.20
2023-04-22T20:43:54.115Z,5.30
2023-04-22T20:46:23.723Z,6.03
2023-04-22T20:48:52.458Z,10.63
2023-04-22T20:51:20.923Z,4.60
2023-04-22T20:53:51.381Z,6.13
2023-04-22T20:56:22.254Z,5.17
2023-04-22T20:58:50.676Z,4.67
2023-04-22T21:01:20.376Z,5.80
2023-04-22T21:03:53.644Z,5.27
2023-04-22T21:06:22.713Z,5.50
2023-04-22T21:08:52.299Z,4.90
2023-04-22T21:11:20.988Z,5.60
2023-04-22T21:13:50.021Z,6.13
2023-04-22T21:16:20.537Z,5.30
2023-04-22T21:18:50.031Z,6.70
2023-04-22T21:21:20.531Z,5.67
2023-04-22T21:23:50.676Z,5.13
2023-04-22T21:26:19.700Z,4.97
2023-04-22T21:28:48.246Z,4.10
2023-04-22T21:31:17.042Z,4.73
2023-04-22T21:33:45.484Z,5.23
2023-04-22T21:36:14.432Z,5.07
2023-04-22T21:38:43.120Z,3.80
2023-04-22T21:41:11.674Z,4.53
2023-04-22T21:43:40.060Z,4.10
2023-04-22T21:46:09.240Z,4.03
2023-04-22T21:48:37.655Z,5.53
2023-04-22T21:51:06.186Z,5.30
2023-04-22T21:53:34.606Z,4.77
2023-04-22T21:56:03.012Z,5.47
2023-04-22T21:58:31.709Z,3.63
2023-04-22T22:01:00.175Z,2.70
2023-04-22T22:03:28.838Z,5.27
2023-04-22T22:05:57.675Z,3.57
2023-04-22T22:08:26.694Z,3.47
2023-04-22T22:10:55.094Z,3.00
2023-04-22T22:13:23.528Z,4.13
2023-04-22T22:15:53.574Z,2.77
2023-04-22T22:18:23.112Z,3.90
2023-04-22T22:20:51.489Z,3.97
2023-04-22T22:23:22.305Z,4.10
2023-04-22T22:25:51.263Z,2.70
2023-04-22T22:28:19.671Z,2.83
2023-04-22T22:30:48.084Z,2.63
2023-04-22T22:33:16.733Z,4.10
2023-04-22T22:35:45.193Z,3.07
2023-04-22T22:38:13.834Z,3.33
2023-04-22T22:40:42.261Z,2.60
2023-04-22T22:43:10.675Z,3.30
2023-04-22T22:45:39.117Z,4.30
2023-04-22T22:48:07.787Z,3.17
2023-04-22T22:50:36.176Z,4.40
2023-04-22T22:53:04.636Z,3.43
2023-04-22T22:55:34.804Z,4.57
2023-04-22T22:58:03.243Z,3.57
2023-04-22T23:00:31.744Z,4.83
2023-04-22T23:03:00.282Z,5.30
2023-04-22T23:05:29.208Z,7.07
2023-04-22T23:07:57.659Z,4.07
2023-04-22T23:10:26.238Z,5.43
2023-04-22T23:12:54.800Z,4.27
2023-04-22T23:15:23.334Z,4.57
2023-04-22T23:17:52.320Z,4.83
2023-04-22T23:20:22.313Z,4.10
2023-04-22T23:22:52.252Z,3.20
2023-04-22T23:25:21.543Z,3.90
2023-04-22T23:27:50.581Z,4.70
2023-04-22T23:30:19.597Z,5.47
2023-04-22T23:32:49.380Z,5.87
2023-04-22T23:35:18.130Z,3.40
2023-04-22T23:37:46.824Z,3.90
2023-04-22T23:40:15.520Z,4.30
2023-04-22T23:42:43.969Z,4.27
2023-04-22T23:45:12.784Z,3.70
2023-04-22T23:47:41.777Z,4.60
2023-04-22T23:50:10.768Z,6.53
2023-04-22T23:52:41.938Z,4.13
2023-04-22T23:55:11.937Z,5.53
2023-04-22T23:57:40.744Z,4.87
